createdAt,value
2022-11-18T00:02:16.017Z,14.38
2022-11-18T00:04:44.052Z,14.00
2022-11-18T00:07:12.085Z,13.83
2022-11-18T00:09:40.196Z,13.65
2022-11-18T00:12:26.619Z,13.75
2022-11-18T00:14:54.561Z,15.38
2022-11-18T00:17:22.789Z,14.47
2022-11-18T00:19:50.929Z,13.68
2022-11-18T00:22:20.472Z,14.43
2022-11-18T00:24:49.592Z,13.50
2022-11-18T00:27:19.843Z,14.60
2022-11-18T00:29:47.895Z,15.88
2022-11-18T00:32:16.018Z,17.35
2022-11-18T00:34:44.155Z,17.50
2022-11-18T00:37:12.026Z,17.60
2022-11-18T00:39:44.169Z,16.23
2022-11-18T00:42:30.344Z,16.70
2022-11-18T00:44:58.647Z,17.32
2022-11-18T00:47:26.687Z,17.60
2022-11-18T00:49:54.654Z,19.62
2022-11-18T00:52:22.475Z,19.60
2022-11-18T00:54:50.777Z,17.12
2022-11-18T00:57:25.981Z,17.55
2022-11-18T00:59:53.951Z,33.15
2022-11-18T01:02:23.192Z,34.43
2022-11-18T01:04:51.398Z,29.32
2022-11-18T01:07:19.388Z,23.35
2022-11-18T01:09:47.482Z,19.67
2022-11-18T01:12:33.560Z,18.98
2022-11-18T01:15:01.730Z,17.37
2022-11-18T01:17:33.054Z,17.42
2022-11-18T01:20:01.141Z,18.87
2022-11-18T01:22:28.966Z,19.35
2022-11-18T01:24:57.102Z,18.85
2022-11-18T01:27:25.118Z,19.30
2022-11-18T01:29:53.016Z,17.10
2022-11-18T01:32:25.500Z,15.48
2022-11-18T01:34:51.007Z,17.10
2022-11-18T01:37:19.146Z,18.30
2022-11-18T01:39:47.094Z,19.15
2022-11-18T01:42:17.320Z,19.23
2022-11-18T01:45:03.757Z,19.73
2022-11-18T01:47:36.696Z,18.92
2022-11-18T01:50:06.846Z,18.65
2022-11-18T01:52:35.720Z,17.75
2022-11-18T01:55:14.499Z,17.07
2022-11-18T01:57:43.370Z,17.98
2022-11-18T02:00:12.854Z,17.92
2022-11-18T02:02:43.901Z,19.77
2022-11-18T02:05:12.270Z,18.32
2022-11-18T02:07:43.305Z,18.50
2022-11-18T02:10:24.340Z,17.77
2022-11-18T02:12:53.473Z,17.20
2022-11-18T02:15:32.762Z,15.45
2022-11-18T02:18:15.279Z,15.60
2022-11-18T02:20:46.218Z,15.23
2022-11-18T02:23:19.616Z,16.90
2022-11-18T02:26:04.334Z,15.72
2022-11-18T02:29:06.613Z,16.82
2022-11-18T02:31:59.306Z,17.42
2022-11-18T02:34:40.973Z,16.20
2022-11-18T02:37:38.584Z,16.55
2022-11-18T02:40:27.304Z,17.07
2022-11-18T02:43:02.522Z,17.27
2022-11-18T02:45:32.107Z,16.93
2022-11-18T02:48:07.819Z,16.50
2022-11-18T02:50:39.073Z,16.57
2022-11-18T02:53:10.874Z,15.05
2022-11-18T02:55:44.263Z,15.32
2022-11-18T02:58:23.741Z,13.03
2022-11-18T03:00:57.842Z,13.72
2022-11-18T03:03:35.697Z,13.13
2022-11-18T03:06:30.252Z,12.75
2022-11-18T03:09:28.429Z,12.28
2022-11-18T03:12:32.825Z,13.03
2022-11-18T03:15:09.214Z,12.82
2022-11-18T03:17:51.059Z,13.35
2022-11-18T03:20:33.159Z,12.75
2022-11-18T03:23:27.558Z,14.00
2022-11-18T03:26:02.403Z,12.70
2022-11-18T03:28:47.061Z,13.00
2022-11-18T03:34:09.251Z,12.15
2022-11-18T03:36:41.861Z,13.88
2022-11-18T03:39:19.500Z,13.62
2022-11-18T03:42:10.128Z,13.38
2022-11-18T03:44:41.744Z,15.08
2022-11-18T03:47:24.244Z,14.45
2022-11-18T03:50:01.853Z,16.40
2022-11-18T03:52:35.069Z,15.58
2022-11-18T03:55:08.637Z,15.88
2022-11-18T03:57:48.138Z,17.57
2022-11-18T04:00:19.004Z,19.98
2022-11-18T04:02:48.948Z,18.70
2022-11-18T04:05:18.963Z,19.42
2022-11-18T04:08:03.462Z,17.80
2022-11-18T04:10:53.372Z,22.62
2022-11-18T04:13:28.715Z,21.15
2022-11-18T04:18:24.684Z,15.75
2022-11-18T04:20:52.960Z,15.32
2022-11-18T04:23:22.625Z,15.65
2022-11-18T04:25:50.414Z,15.20
2022-11-18T04:28:18.388Z,15.80
2022-11-18T04:30:48.237Z,16.37
2022-11-18T04:33:15.912Z,17.57
2022-11-18T04:35:46.533Z,17.07
2022-11-18T04:38:17.849Z,15.70
2022-11-18T04:40:46.095Z,17.77
2022-11-18T04:43:13.880Z,17.60
2022-11-18T04:45:41.720Z,20.52
2022-11-18T04:48:09.614Z,20.20
2022-11-18T04:50:37.442Z,20.25
2022-11-18T04:53:07.337Z,19.75
2022-11-18T04:55:39.302Z,18.98
2022-11-18T04:58:07.274Z,17.17
2022-11-18T05:00:35.245Z,18.20
2022-11-18T05:03:03.284Z,19.07
2022-11-18T05:05:31.205Z,20.27
2022-11-18T05:07:59.239Z,20.23
2022-11-18T05:10:27.085Z,19.15
2022-11-18T05:12:54.823Z,17.57
2022-11-18T05:15:24.128Z,17.52
2022-11-18T05:17:52.223Z,17.30
2022-11-18T05:24:07.583Z,18.25
2022-11-18T05:26:55.791Z,21.33
2022-11-18T05:29:34.277Z,20.67
2022-11-18T05:32:09.315Z,26.42
2022-11-18T05:34:56.473Z,28.38
2022-11-18T05:37:43.624Z,28.35
2022-11-18T05:46:13.846Z,22.20
2022-11-18T05:56:24.060Z,21.27
2022-11-18T05:58:51.983Z,22.85
2022-11-18T06:01:37.078Z,21.17
2022-11-18T06:04:17.230Z,20.85
2022-11-18T06:06:48.635Z,22.45
2022-11-18T06:09:22.013Z,23.67
2022-11-18T06:11:56.685Z,24.07
2022-11-18T06:14:30.371Z,25.48
2022-11-18T06:17:04.585Z,25.88
2022-11-18T06:19:33.962Z,24.15
2022-11-18T06:22:09.237Z,22.25
2022-11-18T06:24:38.192Z,20.82
2022-11-18T06:27:06.538Z,19.65
2022-11-18T06:29:36.288Z,18.77
2022-11-18T06:32:04.481Z,19.00
2022-11-18T06:34:36.737Z,19.15
2022-11-18T06:37:22.434Z,18.32
2022-11-18T06:40:01.734Z,17.87
2022-11-18T06:42:50.426Z,18.73
2022-11-18T06:45:20.872Z,31.65
2022-11-18T06:51:10.990Z,18.55
2022-11-18T06:53:39.274Z,19.62
2022-11-18T06:56:10.493Z,20.57
2022-11-18T06:58:38.806Z,20.05
2022-11-18T07:01:17.921Z,20.50
2022-11-18T07:03:50.047Z,19.12
2022-11-18T07:06:24.723Z,19.07
2022-11-18T07:08:53.163Z,18.55
2022-11-18T07:11:26.007Z,18.40
2022-11-18T07:13:54.207Z,18.05
2022-11-18T07:16:36.285Z,18.80
2022-11-18T07:19:12.931Z,22.22
2022-11-18T07:21:50.605Z,19.00
2022-11-18T07:24:19.284Z,20.70
2022-11-18T07:26:56.196Z,18.77
2022-11-18T07:29:25.214Z,18.60
2022-11-18T07:32:00.163Z,20.32
2022-11-18T07:34:44.077Z,20.70
2022-11-18T07:37:13.781Z,19.67
2022-11-18T07:39:41.645Z,19.15
2022-11-18T07:42:10.104Z,19.45
2022-11-18T07:44:38.277Z,23.42
2022-11-18T07:47:06.301Z,19.95
2022-11-18T07:49:34.284Z,19.77
2022-11-18T07:52:02.302Z,23.62
2022-11-18T07:54:30.263Z,21.00
2022-11-18T07:56:58.313Z,21.12
2022-11-18T07:59:26.808Z,19.32
2022-11-18T08:01:57.349Z,18.55
2022-11-18T08:04:25.779Z,17.82
2022-11-18T08:06:53.654Z,17.80
2022-11-18T08:09:21.783Z,17.15
2022-11-18T08:11:50.204Z,15.75
2022-11-18T08:14:18.569Z,14.78
2022-11-18T08:16:53.125Z,14.60
2022-11-18T08:19:23.420Z,17.35
2022-11-18T08:21:54.546Z,14.68
2022-11-18T08:24:22.531Z,15.18
2022-11-18T08:26:50.482Z,15.35
2022-11-18T08:29:23.550Z,14.00
2022-11-18T08:31:48.011Z,12.58
2022-11-18T08:34:16.048Z,13.45
2022-11-18T08:36:45.422Z,14.23
2022-11-18T08:39:17.504Z,13.10
2022-11-18T08:41:46.751Z,13.00
2022-11-18T08:44:19.926Z,12.98
2022-11-18T08:46:49.770Z,12.43
2022-11-18T08:49:18.000Z,13.10
2022-11-18T08:51:46.525Z,12.85
2022-11-18T08:54:14.584Z,12.65
2022-11-18T08:56:42.450Z,12.80
2022-11-18T08:59:10.280Z,13.55
2022-11-18T09:04:41.585Z,13.62
2022-11-18T09:07:11.894Z,13.03
2022-11-18T09:09:39.732Z,11.85
2022-11-18T09:12:08.888Z,11.48
2022-11-18T09:15:14.765Z,11.55
2022-11-18T09:18:09.120Z,10.68
2022-11-18T09:20:56.995Z,10.93
2022-11-18T09:23:49.492Z,14.68
2022-11-18T09:26:37.995Z,10.75
2022-11-18T09:29:24.317Z,11.88
2022-11-18T09:31:57.499Z,10.50
2022-11-18T09:34:26.288Z,10.65
2022-11-18T09:37:18.466Z,9.63
2022-11-18T09:39:54.476Z,10.75
2022-11-18T09:42:57.286Z,11.10
2022-11-18T09:45:28.514Z,10.63
2022-11-18T09:47:59.381Z,8.33
2022-11-18T09:50:50.163Z,8.33
2022-11-18T09:53:24.579Z,8.33
2022-11-18T09:55:54.893Z,9.10
2022-11-18T09:58:35.057Z,8.95
2022-11-18T10:01:47.208Z,10.58
2022-11-18T10:05:23.783Z,9.43
2022-11-18T10:08:42.218Z,9.78
2022-11-18T10:11:29.080Z,9.38
2022-11-18T10:14:41.427Z,9.25
2022-11-18T10:17:32.770Z,8.48
2022-11-18T10:20:17.739Z,8.13
2022-11-18T10:23:33.489Z,8.40
2022-11-18T10:26:03.266Z,9.15
2022-11-18T10:28:31.911Z,7.20
2022-11-18T10:31:07.288Z,7.97
2022-11-18T10:33:41.394Z,8.70
2022-11-18T10:36:28.653Z,8.20
2022-11-18T10:39:23.596Z,8.13
2022-11-18T10:42:03.979Z,7.05
2022-11-18T10:44:41.804Z,7.58
2022-11-18T10:47:33.162Z,9.85
2022-11-18T10:50:09.910Z,10.00
2022-11-18T10:52:54.415Z,10.68
2022-11-18T10:55:31.279Z,10.58
2022-11-18T10:58:20.351Z,9.63
2022-11-18T11:00:53.425Z,7.80
2022-11-18T11:03:32.062Z,8.38
2022-11-18T11:06:29.638Z,8.30
2022-11-18T11:09:27.603Z,7.55
2022-11-18T11:12:18.260Z,9.08
2022-11-18T11:15:00.985Z,10.88
2022-11-18T11:17:38.235Z,11.48
2022-11-18T11:20:23.315Z,10.00
2022-11-18T11:22:51.585Z,9.28
2022-11-18T11:28:48.642Z,12.35
2022-11-18T11:31:46.026Z,10.20
2022-11-18T11:34:47.015Z,10.50
2022-11-18T11:37:41.575Z,9.90
2022-11-18T11:40:28.817Z,10.13
2022-11-18T11:43:23.347Z,11.40
2022-11-18T11:46:05.374Z,11.63
2022-11-18T11:48:41.975Z,11.38
2022-11-18T11:51:29.507Z,9.95
2022-11-18T11:54:02.855Z,7.65
2022-11-18T11:57:16.203Z,7.15
2022-11-18T12:00:07.848Z,8.28
2022-11-18T12:02:58.985Z,10.15
2022-11-18T12:05:33.231Z,8.48
2022-11-18T12:08:17.053Z,8.03
2022-11-18T12:11:02.786Z,8.43
2022-11-18T12:17:03.106Z,8.40
2022-11-18T12:19:31.124Z,7.50
2022-11-18T12:22:00.583Z,8.65
2022-11-18T12:24:37.980Z,8.18
2022-11-18T12:27:11.861Z,8.58
2022-11-18T12:29:57.260Z,9.40
2022-11-18T12:32:47.823Z,10.03
2022-11-18T12:35:38.543Z,11.70
2022-11-18T12:38:41.848Z,12.13
2022-11-18T12:42:01.000Z,13.00
2022-11-18T12:44:30.879Z,13.03
2022-11-18T12:47:02.596Z,13.50
2022-11-18T12:49:35.956Z,14.33
2022-11-18T12:52:26.103Z,12.53
2022-11-18T12:54:54.188Z,11.30
2022-11-18T12:57:34.674Z,10.40
2022-11-18T13:00:26.221Z,11.50
2022-11-18T13:02:58.510Z,11.15
2022-11-18T13:05:33.550Z,10.10
2022-11-18T13:08:15.261Z,10.63
2022-11-18T13:10:56.180Z,12.37
2022-11-18T13:13:29.445Z,12.82
2022-11-18T13:16:39.217Z,14.10
2022-11-18T13:19:07.207Z,21.02
2022-11-18T13:21:53.564Z,15.08
2022-11-18T13:24:22.891Z,12.20
2022-11-18T13:26:59.291Z,10.20
2022-11-18T13:29:41.584Z,8.73
2022-11-18T13:32:25.443Z,6.83
2022-11-18T13:35:12.057Z,6.55
2022-11-18T13:37:57.360Z,6.77
2022-11-18T13:40:32.089Z,7.83
2022-11-18T13:43:00.210Z,8.55
2022-11-18T13:45:29.939Z,9.63
2022-11-18T13:48:13.774Z,9.90
2022-11-18T13:50:49.133Z,11.22
2022-11-18T13:53:36.745Z,11.97
2022-11-18T13:56:31.673Z,13.32
2022-11-18T13:59:28.802Z,15.68
2022-11-18T14:01:34.879Z,16.05
2022-11-18T14:04:19.382Z,13.98
2022-11-18T14:06:49.752Z,17.98
2022-11-18T14:09:30.771Z,21.87
2022-11-18T14:12:07.508Z,18.75
2022-11-18T14:14:44.572Z,26.17
2022-11-18T14:17:27.505Z,30.90
2022-11-18T14:19:58.465Z,33.78
2022-11-18T14:22:30.473Z,37.03
2022-11-18T14:25:06.320Z,39.27
2022-11-18T14:27:48.743Z,35.65
2022-11-18T14:30:41.127Z,31.87
2022-11-18T14:33:20.214Z,27.58
2022-11-18T14:36:10.652Z,30.02
2022-11-18T14:39:25.414Z,28.10
2022-11-18T14:41:44.912Z,30.17
2022-11-18T14:44:15.308Z,30.65
2022-11-18T14:46:51.995Z,37.45
2022-11-18T14:49:23.793Z,38.53
2022-11-18T14:51:54.562Z,34.65
2022-11-18T14:54:26.669Z,33.53
2022-11-18T14:57:00.907Z,26.70
2022-11-18T14:59:29.213Z,26.80
2022-11-18T15:04:59.613Z,22.58
2022-11-18T15:07:47.022Z,25.35
2022-11-18T15:10:21.305Z,25.12
2022-11-18T15:13:00.970Z,22.52
2022-11-18T15:16:09.572Z,23.35
2022-11-18T15:19:07.342Z,21.23
2022-11-18T15:36:45.382Z,16.15
2022-11-18T15:39:07.293Z,17.55
2022-11-18T15:41:39.930Z,17.37
2022-11-18T15:44:19.124Z,17.12
2022-11-18T15:46:56.888Z,16.97
2022-11-18T15:49:30.835Z,16.97
2022-11-18T15:52:24.330Z,17.25
2022-11-18T15:54:58.533Z,18.25
2022-11-18T15:57:26.510Z,19.35
2022-11-18T15:59:54.694Z,17.55
2022-11-18T16:02:25.386Z,16.60
2022-11-18T16:05:20.665Z,16.17
2022-11-18T16:07:55.035Z,16.05
2022-11-18T16:10:45.257Z,14.78
2022-11-18T16:13:23.095Z,16.75
2022-11-18T16:15:56.350Z,19.02
2022-11-18T16:18:35.367Z,19.87
2022-11-18T16:21:04.878Z,23.57
2022-11-18T16:23:43.665Z,25.32
2022-11-18T16:26:41.576Z,26.35
2022-11-18T16:29:40.735Z,28.90
2022-11-18T16:32:41.167Z,25.65
2022-11-18T16:35:09.371Z,27.70
2022-11-18T16:37:37.442Z,26.35
2022-11-18T16:40:09.467Z,29.20
2022-11-18T16:42:37.696Z,29.63
2022-11-18T16:45:10.026Z,31.20
2022-11-18T16:47:38.918Z,32.25
2022-11-18T16:50:07.253Z,32.00
2022-11-18T16:52:36.300Z,28.17
2022-11-18T16:55:05.495Z,25.25
2022-11-18T17:13:33.762Z,18.60
2022-11-18T17:16:17.093Z,17.82
2022-11-18T17:18:56.644Z,19.27
2022-11-18T17:21:24.718Z,21.37
2022-11-18T17:27:08.516Z,16.57
2022-11-18T17:29:37.082Z,19.05
2022-11-18T17:32:08.885Z,20.32
2022-11-18T17:34:52.899Z,25.55
2022-11-18T17:37:19.511Z,22.05
2022-11-18T17:39:58.879Z,22.20
2022-11-18T17:42:33.139Z,20.17
2022-11-18T17:45:11.349Z,18.48
2022-11-18T17:48:10.195Z,18.52
2022-11-18T17:50:42.333Z,15.78
2022-11-18T17:53:51.808Z,15.72
2022-11-18T17:56:34.003Z,15.55
2022-11-18T17:59:02.942Z,17.77
2022-11-18T18:01:31.297Z,19.52
2022-11-18T18:03:59.604Z,19.70
2022-11-18T18:06:27.817Z,19.45
2022-11-18T18:08:58.052Z,19.10
2022-11-18T18:11:28.147Z,16.70
2022-11-18T18:14:17.643Z,15.48
2022-11-18T18:16:52.087Z,15.80
2022-11-18T18:19:22.973Z,14.18
2022-11-18T18:21:52.650Z,13.53
2022-11-18T18:24:21.946Z,13.53
2022-11-18T18:26:50.811Z,13.43
2022-11-18T18:29:18.869Z,13.78
2022-11-18T18:31:46.627Z,13.43
2022-11-18T18:34:15.406Z,14.00
2022-11-18T18:36:43.383Z,14.73
2022-11-18T18:39:11.409Z,15.72
2022-11-18T18:41:41.488Z,19.48
2022-11-18T18:44:12.482Z,17.25
2022-11-18T18:46:40.988Z,16.00
2022-11-18T18:49:13.408Z,16.90
2022-11-18T18:51:48.091Z,17.25
2022-11-18T18:54:19.962Z,17.57
2022-11-18T18:56:51.367Z,17.48
2022-11-18T18:59:19.374Z,18.92
2022-11-18T19:01:50.541Z,19.90
2022-11-18T19:07:36.424Z,22.27
2022-11-18T19:10:06.996Z,22.27
2022-11-18T19:12:45.929Z,23.42
2022-11-18T19:15:14.473Z,22.80
2022-11-18T19:17:42.770Z,25.68
2022-11-18T19:20:31.976Z,27.00
2022-11-18T19:23:10.066Z,27.13
2022-11-18T19:25:38.041Z,25.50
2022-11-18T19:31:53.321Z,20.20
2022-11-18T19:34:28.359Z,20.23
2022-11-18T19:36:56.773Z,20.82
2022-11-18T19:39:25.393Z,20.60
2022-11-18T19:42:25.808Z,22.82
2022-11-18T19:58:54.372Z,25.52
2022-11-18T20:01:28.218Z,23.62
2022-11-18T20:04:07.079Z,26.42
2022-11-18T20:06:42.704Z,18.23
2022-11-18T20:09:11.430Z,16.32
2022-11-18T20:11:39.362Z,19.57
2022-11-18T20:14:08.046Z,19.35
2022-11-18T20:16:37.107Z,19.98
2022-11-18T20:19:16.890Z,20.10
2022-11-18T20:21:47.460Z,20.23
2022-11-18T20:24:18.715Z,22.32
2022-11-18T20:26:48.394Z,21.87
2022-11-18T20:29:21.500Z,26.77
2022-11-18T20:31:53.466Z,29.10
2022-11-18T20:34:24.060Z,28.23
2022-11-18T20:53:30.127Z,41.53
